Weather History for Wilkerson Pass, CO

Change the Weather History Date:

Friday, May 9, 2014

  Actual Average (KAFF) Record (KAFF)
Temperature  
Mean Temperature 34 °F -  
Max Temperature 44 °F 63 °F 77 °F (2001)
Min Temperature 23 °F 36 °F 23 °F (2002)
Degree Days  
Heating Degree Days 32    
Moisture  
Dew Point 19 °F    
Average Humidity 64    
Maximum Humidity 93    
Minimum Humidity 36    
Precipitation  
Precipitation 0.00 in - - ()
Sea Level Pressure  
Sea Level Pressure 30.08 in    
Wind  
Wind Speed 10 mph (SW)    
Max Wind Speed 15 mph    
Max Gust Speed 33 mph    
Visibility 10 miles    
Events Snow    
Averages and records for this station are not official NWS values.
T = Trace of Precipitation, MM = Missing Value Source: NWS Daily Summary

Daily Weather History Graph

Daily Weather History Graph

Search for Another Location

Airport:

Trip Planner

Search our weather history database for the weather conditions in past years. The results will help you decide how hot, cold, wet, or windy it might be!

Date:

Astronomy

May. 09, 2014 Rise Set
Actual Time 5:54 AM MDT 8:02 PM MDT
Civil Twilight 5:25 AM MDT 8:32 PM MDT
Nautical Twilight 4:49 AM MDT 9:08 PM MDT
Astronomical Twilight 4:09 AM MDT 9:48 PM MDT
Moon 3:05 PM MDT (5/9) 2:55 AM MDT (5/9)
Length of Visible Light 15h 06m
Length of Day
14h 07m
Waxing Gibbous, 74% of the Moon is Illuminated
May 9
Waxing Gibbous
May 14
Full
May 21
Last Quarter
May 28
New
Jun 5
First Quarter

Hourly Weather History & Observations

Time (MDT) Temp. Windchill Dew Point Humidity Pressure Visibility Wind Dir Wind Speed Gust Speed Precip Events Conditions
12:14 AM 24.8 °F 13.4 °F 17.6 °F 74% 30.09 in 10.0 mi SW 12.7 mph 19.6 mph N/A   Scattered Clouds
12:34 AM 23.0 °F 12.4 °F 19.4 °F 86% 30.09 in 10.0 mi SW 10.4 mph 16.1 mph N/A   Scattered Clouds
12:54 AM 23.0 °F 11.7 °F 19.4 °F 86% 30.09 in 10.0 mi SW 11.5 mph 18.4 mph N/A   Mostly Cloudy
1:14 AM 23.0 °F 12.4 °F 19.4 °F 86% 30.08 in 10.0 mi SW 10.4 mph 18.4 mph N/A   Mostly Cloudy
1:34 AM 23.0 °F 13.9 °F 19.4 °F 86% 30.08 in 10.0 mi SW 8.1 mph 18.4 mph N/A   Overcast
1:53 AM 23.0 °F 14.7 °F 19.4 °F 86% 30.08 in 10.0 mi SW 6.9 mph 17.3 mph N/A   Mostly Cloudy
2:13 AM 23.0 °F 13.9 °F 17.6 °F 80% 30.08 in 10.0 mi WSW 8.1 mph - N/A   Mostly Cloudy
2:34 AM 23.0 °F 13.1 °F 17.6 °F 80% 30.07 in 10.0 mi SW 9.2 mph 16.1 mph N/A   Mostly Cloudy
3:14 AM 23.0 °F 13.1 °F 17.6 °F 80% 30.07 in 10.0 mi SW 9.2 mph 16.1 mph N/A   Scattered Clouds
3:34 AM 23.0 °F 14.7 °F 17.6 °F 80% 30.08 in 10.0 mi SW 6.9 mph - N/A   Mostly Cloudy
3:54 AM 23.0 °F 13.1 °F 17.6 °F 80% 30.07 in 10.0 mi SW 9.2 mph - N/A   Scattered Clouds
4:13 AM 23.0 °F 13.9 °F 17.6 °F 80% 30.07 in 10.0 mi SW 8.1 mph - N/A   Clear
4:33 AM 23.0 °F 12.4 °F 17.6 °F 80% 30.07 in 10.0 mi SW 10.4 mph - N/A   Scattered Clouds
4:54 AM 23.0 °F 11.7 °F 17.6 °F 80% 30.06 in 10.0 mi SW 11.5 mph 17.3 mph N/A   Scattered Clouds
5:14 AM 23.0 °F 13.1 °F 17.6 °F 80% 30.06 in 10.0 mi SW 9.2 mph 19.6 mph N/A   Mostly Cloudy
5:33 AM 23.0 °F 11.7 °F 17.6 °F 80% 30.06 in 10.0 mi SW 11.5 mph 17.3 mph N/A   Mostly Cloudy
6:13 AM 23.0 °F 10.1 °F 15.8 °F 74% 30.05 in 10.0 mi SW 15.0 mph 20.7 mph N/A   Scattered Clouds
6:34 AM 23.0 °F 11.1 °F 15.8 °F 74% 30.06 in 10.0 mi SW 12.7 mph 19.6 mph N/A   Clear
6:54 AM 23.0 °F 11.7 °F 17.6 °F 80% 30.07 in 10.0 mi SW 11.5 mph 17.3 mph N/A   Clear
7:14 AM 23.0 °F 12.4 °F 15.8 °F 74% 30.07 in 10.0 mi SW 10.4 mph 18.4 mph N/A   Clear
7:34 AM 24.8 °F 13.4 °F 15.8 °F 69% 30.06 in 10.0 mi SW 12.7 mph 21.9 mph N/A   Clear
7:54 AM 26.6 °F 15.7 °F 15.8 °F 64% 30.07 in 10.0 mi SW 12.7 mph 23.0 mph N/A   Clear
8:14 AM 26.6 °F 15.7 °F 17.6 °F 69% 30.07 in 10.0 mi SSW 12.7 mph 18.4 mph N/A   Clear
8:34 AM 26.6 °F 15.2 °F 17.6 °F 69% 30.07 in 10.0 mi SW 13.8 mph 24.2 mph N/A   Clear
8:54 AM 28.4 °F 19.1 °F 17.6 °F 64% 30.08 in 10.0 mi SW 10.4 mph 19.6 mph N/A   Clear
9:14 AM 30.2 °F 20.8 °F 14.0 °F 51% 30.09 in 10.0 mi SSW 11.5 mph 17.3 mph N/A   Clear
9:34 AM 32.0 °F 27.5 °F 17.6 °F 55% 30.09 in 10.0 mi SW 4.6 mph 16.1 mph N/A   Clear
9:54 AM 33.8 °F 28.6 °F 19.4 °F 56% 30.09 in 10.0 mi SW 5.8 mph - N/A   Scattered Clouds
10:14 AM 33.8 °F 28.6 °F 17.6 °F 52% 30.09 in 10.0 mi SW 5.8 mph - N/A   Overcast
10:34 AM 33.8 °F 28.6 °F 17.6 °F 52% 30.08 in 10.0 mi SSW 5.8 mph - N/A   Overcast
10:54 AM 35.6 °F 31.7 °F 17.6 °F 48% 30.08 in 10.0 mi WSW 4.6 mph - N/A   Overcast
11:14 AM 33.8 °F 28.6 °F 17.6 °F 52% 30.08 in 10.0 mi South 5.8 mph - N/A   Overcast
11:33 AM 33.8 °F 27.0 °F 17.6 °F 52% 30.08 in 10.0 mi SSW 8.1 mph - N/A   Overcast
11:54 AM 37.4 °F 32.1 °F 17.6 °F 45% 30.08 in 10.0 mi SW 6.9 mph - N/A   Overcast
12:13 PM 35.6 °F 31.7 °F 17.6 °F 48% 30.08 in 10.0 mi SSW 4.6 mph - N/A   Overcast
12:34 PM 35.6 °F 29.2 °F 15.8 °F 44% 30.07 in 10.0 mi SSW 8.1 mph 20.7 mph N/A   Overcast
12:54 PM 35.6 °F 28.0 °F 17.6 °F 48% 30.07 in 10.0 mi SSW 10.4 mph 17.3 mph N/A   Overcast
1:14 PM 42.8 °F 37.0 °F 17.6 °F 36% 30.06 in 10.0 mi SW 10.4 mph 20.7 mph N/A   Overcast
1:34 PM 37.4 °F 32.1 °F 17.6 °F 45% 30.06 in 10.0 mi SSW 6.9 mph 20.7 mph N/A   Overcast
1:54 PM 41.0 °F 37.1 °F 17.6 °F 39% 30.06 in 10.0 mi SSW 5.8 mph 19.6 mph N/A   Mostly Cloudy
2:14 PM 42.8 °F 37.0 °F 17.6 °F 36% 30.05 in 10.0 mi SSW 10.4 mph 18.4 mph N/A   Mostly Cloudy
2:34 PM 42.8 °F 37.5 °F 21.2 °F 42% 30.05 in 10.0 mi SSW 9.2 mph 20.7 mph N/A   Mostly Cloudy
2:54 PM 44.6 °F 39.7 °F 19.4 °F 37% 30.05 in 10.0 mi SSW 9.2 mph 28.8 mph N/A   Scattered Clouds
3:14 PM 42.8 °F 37.0 °F 19.4 °F 39% 30.05 in 10.0 mi SSW 10.4 mph 33.4 mph N/A   Mostly Cloudy
3:32 PM 41.0 °F 36.4 °F 19.4 °F 42% 30.05 in 10.0 mi SW 6.9 mph 18.4 mph N/A   Overcast
3:54 PM 42.8 °F 35.8 °F 19.4 °F 39% 30.04 in 10.0 mi SSW 13.8 mph 21.9 mph N/A   Overcast
4:14 PM 37.4 °F 29.3 °F 19.4 °F 48% 30.04 in 10.0 mi SSW 12.7 mph 21.9 mph N/A   Overcast
4:33 PM 37.4 °F 29.8 °F 19.4 °F 48% 30.03 in 10.0 mi SSW 11.5 mph 20.7 mph N/A   Overcast
4:53 PM 37.4 °F 28.9 °F 19.4 °F 48% 30.04 in 10.0 mi SSW 13.8 mph 21.9 mph N/A   Overcast
5:14 PM 39.2 °F 33.0 °F 21.2 °F 49% 30.05 in 10.0 mi South 9.2 mph 16.1 mph N/A   Overcast
5:34 PM 37.4 °F 29.8 °F 19.4 °F 48% 30.05 in 10.0 mi SSW 11.5 mph 21.9 mph N/A   Mostly Cloudy
5:54 PM 37.4 °F 30.3 °F 21.2 °F 52% 30.05 in 10.0 mi SSW 10.4 mph 20.7 mph N/A   Overcast
6:14 PM 35.6 °F 27.5 °F 19.4 °F 52% 30.06 in 10.0 mi SSW 11.5 mph 20.7 mph N/A   Overcast
6:34 PM 33.8 °F 25.8 °F 21.2 °F 60% 30.07 in 10.0 mi SSW 10.4 mph 25.3 mph N/A   Overcast
6:53 PM 35.6 °F 28.6 °F 23.0 °F 60% 30.07 in 10.0 mi SW 9.2 mph 24.2 mph N/A   Mostly Cloudy
7:13 PM 33.8 °F 24.8 °F 23.0 °F 65% 30.07 in 10.0 mi SSW 12.7 mph 18.4 mph N/A   Scattered Clouds
7:34 PM 32.0 °F 23.6 °F 23.0 °F 69% 30.09 in 10.0 mi SW 10.4 mph 18.4 mph N/A   Clear
7:54 PM 32.0 °F 24.2 °F 23.0 °F 69% 30.09 in 10.0 mi SW 9.2 mph 20.7 mph N/A   Clear
8:14 PM 32.0 °F 24.2 °F 23.0 °F 69% 30.09 in 10.0 mi SW 9.2 mph 18.4 mph N/A   Scattered Clouds
8:34 PM 32.0 °F 23.6 °F 23.0 °F 69% 30.09 in 10.0 mi SW 10.4 mph - N/A   Clear
8:54 PM 32.0 °F 23.6 °F 23.0 °F 69% 30.09 in 10.0 mi SW 10.4 mph 16.1 mph N/A   Clear
9:14 PM 32.0 °F 24.8 °F 23.0 °F 69% 30.09 in 10.0 mi SW 8.1 mph 17.3 mph N/A   Clear
9:33 PM 30.2 °F 21.9 °F 23.0 °F 75% 30.11 in 10.0 mi SSW 9.2 mph 17.3 mph N/A   Clear
9:54 PM 30.2 °F 21.3 °F 23.0 °F 75% 30.12 in 10.0 mi SSW 10.4 mph 19.6 mph N/A   Mostly Cloudy
10:14 PM 30.2 °F 20.8 °F 23.0 °F 75% 30.12 in 10.0 mi SW 11.5 mph 21.9 mph N/A   Overcast
10:34 PM 30.2 °F 24.3 °F 23.0 °F 75% 30.13 in 10.0 mi WSW 5.8 mph 17.3 mph N/A   Mostly Cloudy
10:53 PM 30.2 °F 25.4 °F 23.0 °F 75% 30.14 in 7.0 mi WSW 4.6 mph - N/A Snow Snow
11:14 PM 30.2 °F 21.9 °F 24.8 °F 80% 30.14 in 7.0 mi WNW 9.2 mph 18.4 mph N/A Snow Light Snow
11:34 PM 28.4 °F 21.2 °F 24.8 °F 86% 30.12 in 10.0 mi WSW 6.9 mph - N/A   Scattered Clouds
11:54 PM 28.4 °F 20.4 °F 26.6 °F 93% 30.12 in 10.0 mi SW 8.1 mph - N/A   Clear